createdAt,value
2018-04-15T00:01:41.659Z,34.43
2018-04-15T00:04:09.200Z,32.90
2018-04-15T00:06:36.720Z,35.10
2018-04-15T00:09:04.279Z,33.93
2018-04-15T00:11:31.802Z,32.13
2018-04-15T00:13:59.383Z,34.00
2018-04-15T00:16:26.899Z,34.03
2018-04-15T00:18:54.426Z,33.33
2018-04-15T00:21:21.939Z,33.93
2018-04-15T00:23:50.096Z,33.40
2018-04-15T00:26:17.618Z,33.90
2018-04-15T00:28:45.162Z,32.53
2018-04-15T00:31:14.015Z,32.23
2018-04-15T00:33:41.551Z,32.23
2018-04-15T00:36:09.062Z,31.60
2018-04-15T00:38:36.607Z,32.10
2018-04-15T00:41:04.141Z,30.97
2018-04-15T00:43:31.680Z,30.87
2018-04-15T00:45:59.230Z,32.17
2018-04-15T00:48:26.870Z,32.37
2018-04-15T00:50:54.363Z,32.73
2018-04-15T00:53:22.668Z,31.97
2018-04-15T00:55:50.182Z,32.73
2018-04-15T00:58:17.718Z,32.33
2018-04-15T01:00:45.231Z,32.40
2018-04-15T01:03:12.799Z,32.63
2018-04-15T01:05:40.311Z,32.90
2018-04-15T01:08:07.891Z,32.13
2018-04-15T01:10:35.418Z,31.03
2018-04-15T01:13:02.947Z,32.90
2018-04-15T01:15:30.469Z,31.03
2018-04-15T01:17:58.004Z,33.10
2018-04-15T01:20:25.533Z,33.53
2018-04-15T01:22:53.043Z,33.23
2018-04-15T01:25:20.575Z,34.77
2018-04-15T01:27:48.124Z,31.50
2018-04-15T01:30:15.661Z,33.13
2018-04-15T01:32:43.170Z,32.40
2018-04-15T01:35:10.712Z,33.70
2018-04-15T01:37:38.223Z,33.53
2018-04-15T01:40:06.549Z,33.80
2018-04-15T01:42:34.071Z,34.50
2018-04-15T01:45:01.657Z,35.37
2018-04-15T01:47:29.196Z,32.83
2018-04-15T01:49:56.734Z,33.60
2018-04-15T01:52:24.258Z,33.73
2018-04-15T01:54:51.803Z,34.23
2018-04-15T01:57:19.315Z,35.50
2018-04-15T01:59:47.633Z,36.03
2018-04-15T02:02:15.148Z,33.10
2018-04-15T02:04:42.689Z,36.23
2018-04-15T02:07:10.211Z,35.03
2018-04-15T02:09:37.755Z,36.77
2018-04-15T02:12:05.279Z,38.67
2018-04-15T02:14:32.818Z,32.93
2018-04-15T02:17:00.330Z,37.23
2018-04-15T02:19:27.903Z,37.20
2018-04-15T02:21:55.466Z,37.93
2018-04-15T02:24:22.999Z,37.00
2018-04-15T02:26:51.278Z,36.23
2018-04-15T02:29:18.815Z,37.37
2018-04-15T02:31:46.327Z,36.67
2018-04-15T02:34:13.858Z,39.07
2018-04-15T02:36:42.160Z,41.70
2018-04-15T02:39:09.785Z,39.57
2018-04-15T02:41:37.279Z,41.17
2018-04-15T02:44:04.818Z,40.77
2018-04-15T02:46:33.147Z,43.40
2018-04-15T02:49:00.693Z,41.73
2018-04-15T02:51:28.224Z,43.77
2018-04-15T02:53:56.507Z,43.47
2018-04-15T02:56:24.807Z,41.50
2018-04-15T02:58:52.319Z,43.30
2018-04-15T03:01:19.860Z,44.87
2018-04-15T03:03:47.381Z,45.00
2018-04-15T03:06:14.924Z,45.90
2018-04-15T03:08:42.479Z,45.43
2018-04-15T03:11:10.782Z,43.83
2018-04-15T03:13:38.316Z,47.10
2018-04-15T03:16:05.860Z,49.07
2018-04-15T03:18:33.406Z,43.80
2018-04-15T03:21:00.951Z,47.07
2018-04-15T03:23:28.499Z,46.23
2018-04-15T03:25:56.047Z,43.20
2018-04-15T03:28:23.568Z,44.30
2018-04-15T03:30:51.099Z,45.10
2018-04-15T03:33:18.615Z,47.27
2018-04-15T03:35:46.151Z,47.80
2018-04-15T03:38:13.667Z,47.50
2018-04-15T03:40:41.248Z,44.97
2018-04-15T03:43:08.759Z,48.53
2018-04-15T03:45:36.303Z,46.63
2018-04-15T03:48:03.823Z,46.50
2018-04-15T03:50:31.364Z,48.37
2018-04-15T03:52:58.893Z,43.93
2018-04-15T03:55:26.427Z,44.33
2018-04-15T03:57:53.942Z,47.60
2018-04-15T04:00:21.483Z,46.87
2018-04-15T04:02:48.998Z,48.27
2018-04-15T04:05:16.538Z,48.00
2018-04-15T04:07:44.058Z,46.73
2018-04-15T04:10:11.604Z,43.87
2018-04-15T04:12:39.120Z,50.13
2018-04-15T04:15:06.661Z,46.70
2018-04-15T04:17:46.099Z,46.63
2018-04-15T04:20:25.434Z,47.93
2018-04-15T04:23:04.755Z,47.60
2018-04-15T04:25:43.990Z,48.53
2018-04-15T04:28:11.531Z,49.53
2018-04-15T04:30:39.070Z,46.57
2018-04-15T04:33:07.351Z,48.00
2018-04-15T04:35:34.886Z,51.40
2018-04-15T04:38:02.422Z,48.40
2018-04-15T04:40:29.958Z,49.33
2018-04-15T04:42:57.471Z,49.30
2018-04-15T04:45:25.016Z,53.70
2018-04-15T04:47:52.531Z,51.43
2018-04-15T04:50:20.062Z,50.17
2018-04-15T04:52:47.578Z,52.90
2018-04-15T04:55:15.127Z,53.53
2018-04-15T04:57:42.651Z,51.03
2018-04-15T05:00:10.968Z,54.17
2018-04-15T05:02:38.483Z,51.37
2018-04-15T05:05:06.014Z,54.13
2018-04-15T05:07:33.559Z,53.00
2018-04-15T05:10:01.120Z,53.20
2018-04-15T05:12:28.663Z,54.23
2018-04-15T05:14:56.183Z,52.07
2018-04-15T05:17:23.746Z,53.63
2018-04-15T05:19:51.262Z,56.67
2018-04-15T05:22:18.814Z,54.63
2018-04-15T05:24:46.339Z,56.73
2018-04-15T05:27:13.880Z,55.77
2018-04-15T05:29:41.395Z,60.17
2018-04-15T05:32:08.938Z,59.30
2018-04-15T05:34:36.469Z,58.77
2018-04-15T05:37:04.013Z,61.73
2018-04-15T05:39:31.547Z,60.33
2018-04-15T05:41:59.099Z,62.37
2018-04-15T05:44:26.629Z,65.07
2018-04-15T05:46:54.179Z,64.47
2018-04-15T05:49:23.783Z,65.13
2018-04-15T05:51:51.330Z,65.73
2018-04-15T05:54:19.732Z,67.50
2018-04-15T05:56:47.282Z,64.23
2018-04-15T05:59:14.838Z,65.90
2018-04-15T06:01:42.383Z,66.87
2018-04-15T06:04:09.937Z,73.73
2018-04-15T06:06:37.480Z,72.20
2018-04-15T06:09:05.827Z,64.10
2018-04-15T06:11:33.383Z,71.93
2018-04-15T06:14:00.903Z,73.20
2018-04-15T06:16:28.475Z,69.47
2018-04-15T06:18:56.764Z,67.53
2018-04-15T06:21:24.301Z,70.50
2018-04-15T06:23:51.825Z,71.77
2018-04-15T06:26:19.354Z,66.40
2018-04-15T06:28:46.879Z,69.13
2018-04-15T06:31:14.420Z,65.07
2018-04-15T06:33:42.734Z,68.60
2018-04-15T06:36:11.044Z,68.00
2018-04-15T06:38:38.577Z,72.07
2018-04-15T06:41:06.096Z,72.33
2018-04-15T06:43:33.634Z,70.93
2018-04-15T06:46:01.151Z,73.67
2018-04-15T06:48:29.463Z,74.00
2018-04-15T06:50:57.004Z,71.63
2018-04-15T06:53:24.545Z,72.43
2018-04-15T06:55:52.852Z,90.68
2018-04-15T06:58:20.404Z,72.67
2018-04-15T07:00:47.924Z,66.30
2018-04-15T07:03:15.471Z,67.03
2018-04-15T07:05:43.004Z,69.50
2018-04-15T07:08:10.560Z,69.70
2018-04-15T07:10:38.492Z,66.73
2018-04-15T07:13:06.092Z,68.10
2018-04-15T07:15:34.433Z,64.30
2018-04-15T07:18:02.834Z,66.50
2018-04-15T07:20:30.352Z,65.93
2018-04-15T07:22:57.923Z,65.97
2018-04-15T07:25:25.447Z,62.63
2018-04-15T07:27:52.992Z,60.10
2018-04-15T07:30:20.559Z,59.33
2018-04-15T07:32:48.156Z,57.77
2018-04-15T07:35:16.187Z,59.30
2018-04-15T07:37:43.726Z,56.13
2018-04-15T07:40:11.254Z,53.77
2018-04-15T07:42:38.835Z,50.50
2018-04-15T07:45:07.123Z,51.50
2018-04-15T07:47:35.011Z,49.40
2018-04-15T07:50:03.218Z,43.43
2018-04-15T07:52:31.591Z,45.53
2018-04-15T07:54:59.103Z,43.43
2018-04-15T07:57:26.656Z,43.23
2018-04-15T07:59:54.946Z,41.17
2018-04-15T08:02:22.551Z,40.63
2018-04-15T08:04:50.096Z,40.67
2018-04-15T08:07:17.630Z,41.23
2018-04-15T08:09:45.157Z,38.33
2018-04-15T08:12:12.699Z,35.90
2018-04-15T08:14:40.279Z,35.83
2018-04-15T08:17:07.858Z,37.47
2018-04-15T08:19:35.362Z,34.63
2018-04-15T08:22:02.888Z,33.30
2018-04-15T08:24:30.441Z,29.27
2018-04-15T08:26:57.967Z,28.50
2018-04-15T08:29:25.536Z,26.00
2018-04-15T08:31:53.067Z,26.00
2018-04-15T08:34:20.603Z,21.67
2018-04-15T08:36:48.160Z,23.10
2018-04-15T08:39:15.695Z,20.80
2018-04-15T08:41:43.692Z,17.60
2018-04-15T08:44:11.667Z,18.03
2018-04-15T08:46:39.194Z,19.30
2018-04-15T08:49:06.807Z,21.57
2018-04-15T08:51:35.240Z,16.70
2018-04-15T08:54:03.554Z,18.63
2018-04-15T08:56:31.103Z,19.05
2018-04-15T08:58:58.989Z,14.23
2018-04-15T09:01:26.507Z,13.70
2018-04-15T09:03:54.939Z,13.00
2018-04-15T09:06:22.459Z,14.73
2018-04-15T09:08:50.591Z,11.43
2018-04-15T09:11:18.135Z,10.80
2018-04-15T09:13:46.500Z,11.73
2018-04-15T09:16:14.025Z,12.83
2018-04-15T09:18:42.339Z,13.57
2018-04-15T09:21:09.885Z,11.97
2018-04-15T09:23:37.419Z,11.90
2018-04-15T09:26:05.761Z,11.40
2018-04-15T09:28:33.311Z,9.27
2018-04-15T09:31:06.571Z,8.40
2018-04-15T09:33:34.125Z,8.87
2018-04-15T09:36:01.634Z,7.77
2018-04-15T09:38:29.214Z,6.73
2018-04-15T09:40:56.727Z,6.67
2018-04-15T09:43:24.250Z,6.80
2018-04-15T09:45:52.518Z,7.57
2018-04-15T09:48:20.051Z,7.03
2018-04-15T09:50:47.570Z,4.90
2018-04-15T09:53:15.107Z,5.33
2018-04-15T09:55:43.406Z,6.13
2018-04-15T09:58:10.944Z,6.13
2018-04-15T10:00:39.252Z,6.40
2018-04-15T10:03:06.778Z,6.90
2018-04-15T10:05:34.302Z,7.07
2018-04-15T10:08:01.812Z,7.33
2018-04-15T10:10:30.112Z,8.03
2018-04-15T10:12:57.634Z,7.70
2018-04-15T10:15:25.171Z,7.47
2018-04-15T10:17:52.694Z,7.27
2018-04-15T10:20:20.230Z,7.73
2018-04-15T10:22:47.747Z,7.93
2018-04-15T10:25:15.286Z,7.20
2018-04-15T10:27:42.798Z,8.17
2018-04-15T10:30:10.341Z,7.57
2018-04-15T10:32:37.880Z,7.97
2018-04-15T10:35:05.856Z,7.27
2018-04-15T10:37:33.392Z,6.63
2018-04-15T10:40:00.931Z,7.50
2018-04-15T10:42:28.454Z,6.87
2018-04-15T10:44:55.995Z,6.80
2018-04-15T10:47:23.538Z,6.30
2018-04-15T10:49:51.091Z,6.43
2018-04-15T10:52:18.640Z,6.50
2018-04-15T10:54:46.170Z,6.07
2018-04-15T10:57:14.471Z,6.03
2018-04-15T10:59:42.000Z,5.57
2018-04-15T11:02:09.559Z,5.80
2018-04-15T11:04:37.109Z,5.27
2018-04-15T11:07:05.431Z,5.80
2018-04-15T11:09:32.969Z,4.43
2018-04-15T11:12:01.264Z,4.47
2018-04-15T11:14:28.801Z,4.27
2018-04-15T11:16:56.334Z,4.40
2018-04-15T11:19:23.867Z,3.80
2018-04-15T11:21:51.408Z,4.13
2018-04-15T11:24:18.951Z,4.60
2018-04-15T11:26:46.493Z,5.00
2018-04-15T11:29:14.032Z,4.40
2018-04-15T11:31:41.554Z,4.10
2018-04-15T11:34:09.087Z,3.90
2018-04-15T11:36:36.634Z,3.30
2018-04-15T11:39:04.165Z,3.70
2018-04-15T11:41:31.682Z,3.67
2018-04-15T11:43:59.208Z,4.10
2018-04-15T11:46:26.758Z,3.40
2018-04-15T11:48:54.279Z,5.27
2018-04-15T11:51:21.823Z,4.03
2018-04-15T11:53:49.345Z,3.20
2018-04-15T11:56:16.882Z,3.70
2018-04-15T11:58:44.400Z,3.23
2018-04-15T12:01:11.938Z,3.60
2018-04-15T12:03:39.446Z,4.13
2018-04-15T12:06:06.974Z,3.80
2018-04-15T12:08:35.244Z,6.33
2018-04-15T12:11:02.774Z,6.63
2018-04-15T12:13:30.282Z,4.50
2018-04-15T12:15:57.822Z,3.07
2018-04-15T12:18:26.099Z,4.10
2018-04-15T12:20:53.630Z,4.13
2018-04-15T12:23:21.187Z,3.63
2018-04-15T12:25:48.726Z,3.50
2018-04-15T12:28:16.234Z,3.67
2018-04-15T12:30:43.774Z,3.53
2018-04-15T12:33:11.666Z,3.83
2018-04-15T12:35:39.257Z,3.20
2018-04-15T12:38:06.756Z,3.87
2018-04-15T12:40:34.294Z,3.63
2018-04-15T12:43:01.819Z,3.17
2018-04-15T12:45:29.363Z,10.00
2018-04-15T12:47:57.278Z,6.00
2018-04-15T12:50:24.819Z,3.50
2018-04-15T12:52:52.338Z,4.00
2018-04-15T12:55:19.863Z,4.47
2018-04-15T12:57:47.414Z,3.37
2018-04-15T13:00:14.952Z,3.37
2018-04-15T13:02:42.529Z,4.03
2018-04-15T13:05:10.069Z,3.80
2018-04-15T13:07:38.348Z,4.30
2018-04-15T13:10:05.911Z,4.60
2018-04-15T13:12:33.435Z,4.33
2018-04-15T13:15:00.984Z,4.30
2018-04-15T13:17:28.504Z,4.67
2018-04-15T13:19:56.063Z,4.23
2018-04-15T13:22:23.944Z,4.77
2018-04-15T13:24:52.223Z,4.80
2018-04-15T13:27:19.767Z,4.90
2018-04-15T13:29:47.283Z,5.83
2018-04-15T13:32:14.824Z,5.67
2018-04-15T13:34:43.124Z,6.27
2018-04-15T13:37:10.669Z,5.90
2018-04-15T13:39:38.179Z,5.30
2018-04-15T13:42:06.472Z,5.90
2018-04-15T13:44:33.995Z,4.73
2018-04-15T13:47:02.314Z,6.77
2018-04-15T13:49:30.392Z,7.80
2018-04-15T13:51:57.962Z,5.77
2018-04-15T13:54:25.487Z,5.00
2018-04-15T13:56:53.059Z,5.53
2018-04-15T13:59:20.581Z,5.07
2018-04-15T14:01:48.110Z,5.10
2018-04-15T14:04:15.669Z,5.23
2018-04-15T14:06:43.192Z,5.20
2018-04-15T14:09:10.709Z,5.40
2018-04-15T14:11:38.272Z,5.13
2018-04-15T14:14:05.794Z,4.63
2018-04-15T14:16:33.569Z,4.87
2018-04-15T14:19:01.907Z,4.33
2018-04-15T14:21:29.459Z,4.57
2018-04-15T14:23:57.734Z,4.83
2018-04-15T14:26:25.268Z,4.43
2018-04-15T14:28:52.788Z,5.00
2018-04-15T14:31:20.315Z,4.67
2018-04-15T14:33:48.623Z,5.00
2018-04-15T14:36:16.151Z,4.97
2018-04-15T14:38:43.674Z,4.20
2018-04-15T14:41:11.209Z,4.63
2018-04-15T14:43:38.749Z,6.20
2018-04-15T14:46:06.290Z,5.40
2018-04-15T14:48:33.823Z,4.70
2018-04-15T14:51:01.371Z,5.50
2018-04-15T14:53:28.877Z,5.40
2018-04-15T14:55:56.409Z,5.33
2018-04-15T14:58:23.926Z,7.87
2018-04-15T15:00:51.444Z,4.80
2018-04-15T15:03:18.984Z,4.03
2018-04-15T15:05:46.495Z,4.83
2018-04-15T15:08:14.051Z,5.63
2018-04-15T15:10:41.574Z,5.67
2018-04-15T15:13:09.108Z,5.93
2018-04-15T15:15:36.643Z,4.63
2018-04-15T15:18:05.128Z,5.57
2018-04-15T15:20:32.651Z,6.47
2018-04-15T15:23:00.267Z,6.30
2018-04-15T15:25:28.283Z,5.50
2018-04-15T15:27:56.908Z,5.10
2018-04-15T15:30:26.412Z,4.00
2018-04-15T15:32:55.013Z,4.03
2018-04-15T15:35:22.519Z,3.83
2018-04-15T15:37:50.056Z,3.93
2018-04-15T15:40:17.576Z,3.90
2018-04-15T15:42:45.134Z,4.10
2018-04-15T15:45:12.640Z,4.10
2018-04-15T15:47:40.669Z,3.83
2018-04-15T15:50:08.484Z,3.97
2018-04-15T15:52:36.013Z,3.50
2018-04-15T15:55:03.564Z,3.70
2018-04-15T15:57:31.104Z,3.20
2018-04-15T15:59:58.662Z,5.10
2018-04-15T16:02:26.607Z,3.87
2018-04-15T16:04:54.122Z,4.00
2018-04-15T16:07:21.751Z,4.70
2018-04-15T16:09:49.995Z,4.10
2018-04-15T16:12:17.600Z,4.10
2018-04-15T16:14:46.853Z,4.30
2018-04-15T16:17:15.272Z,4.03
2018-04-15T16:19:42.802Z,3.90
2018-04-15T16:22:12.319Z,3.73
2018-04-15T16:24:39.853Z,3.53
2018-04-15T16:27:07.417Z,3.60
2018-04-15T16:29:34.976Z,3.17
2018-04-15T16:32:02.510Z,3.23
2018-04-15T16:34:30.014Z,3.10
2018-04-15T16:36:57.547Z,2.80
2018-04-15T16:39:25.091Z,2.90
2018-04-15T16:41:52.623Z,2.33
2018-04-15T16:44:20.135Z,3.20
2018-04-15T16:46:47.647Z,2.40
2018-04-15T16:49:15.178Z,2.80
2018-04-15T16:51:42.692Z,3.73
2018-04-15T16:54:10.278Z,3.60
2018-04-15T16:56:37.803Z,2.70
2018-04-15T16:59:05.335Z,2.30
2018-04-15T17:01:32.843Z,2.60
2018-04-15T17:04:00.390Z,3.00
2018-04-15T17:06:27.895Z,2.73
2018-04-15T17:08:55.455Z,2.50
2018-04-15T17:11:22.982Z,2.67
2018-04-15T17:13:50.518Z,2.87
2018-04-15T17:16:18.036Z,2.97
2018-04-15T17:18:45.575Z,2.50
2018-04-15T17:21:13.089Z,2.40
2018-04-15T17:23:40.634Z,2.77
2018-04-15T17:26:08.155Z,3.13
2018-04-15T17:28:35.707Z,2.90
2018-04-15T17:31:03.215Z,3.20
2018-04-15T17:33:30.761Z,2.93
2018-04-15T17:35:59.047Z,3.57
2018-04-15T17:38:26.582Z,2.77
2018-04-15T17:40:54.161Z,2.90
2018-04-15T17:43:21.662Z,2.60
2018-04-15T17:45:49.184Z,3.50
2018-04-15T17:48:16.734Z,2.87
2018-04-15T17:50:44.253Z,3.30
2018-04-15T17:53:11.800Z,3.17
2018-04-15T17:55:39.330Z,4.60
2018-04-15T17:58:06.859Z,4.63
2018-04-15T18:00:34.403Z,4.47
2018-04-15T18:03:02.708Z,5.43
2018-04-15T18:05:30.987Z,5.13
2018-04-15T18:07:59.363Z,3.80
2018-04-15T18:10:27.667Z,3.80
2018-04-15T18:12:55.193Z,4.10
2018-04-15T18:15:22.737Z,3.50
2018-04-15T18:17:50.312Z,3.53
2018-04-15T18:20:17.834Z,4.07
2018-04-15T18:22:45.342Z,4.27
2018-04-15T18:25:12.927Z,4.47
2018-04-15T18:27:40.436Z,4.90
2018-04-15T18:30:07.980Z,4.90
2018-04-15T18:32:35.512Z,6.20
2018-04-15T18:35:03.056Z,5.57
2018-04-15T18:37:30.563Z,6.67
2018-04-15T18:39:58.099Z,6.67
2018-04-15T18:42:25.610Z,6.50
2018-04-15T18:44:53.981Z,6.80
2018-04-15T18:47:21.459Z,7.13
2018-04-15T18:49:48.992Z,5.80
2018-04-15T18:52:16.531Z,6.17
2018-04-15T18:54:44.063Z,6.57
2018-04-15T18:57:11.570Z,7.33
2018-04-15T18:59:39.896Z,7.07
2018-04-15T19:02:07.506Z,6.90
2018-04-15T19:04:34.970Z,6.97
2018-04-15T19:07:02.513Z,8.07
2018-04-15T19:09:30.057Z,7.13
2018-04-15T19:11:57.575Z,7.50
2018-04-15T19:14:25.108Z,7.23
2018-04-15T19:16:52.639Z,8.00
2018-04-15T19:19:20.235Z,7.43
2018-04-15T19:21:47.747Z,6.60
2018-04-15T19:24:15.288Z,7.10
2018-04-15T19:26:42.832Z,7.63
2018-04-15T19:29:10.372Z,7.67
2018-04-15T19:31:37.883Z,7.67
2018-04-15T19:34:05.406Z,7.57
2018-04-15T19:36:32.938Z,7.33
2018-04-15T19:39:02.031Z,7.67
2018-04-15T19:41:30.150Z,7.50
2018-04-15T19:43:57.711Z,7.27
2018-04-15T19:46:25.987Z,7.23
2018-04-15T19:48:53.519Z,6.57
2018-04-15T19:51:21.027Z,6.90
2018-04-15T19:53:48.566Z,7.90
2018-04-15T19:56:16.842Z,7.37
2018-04-15T19:58:44.375Z,8.60
2018-04-15T20:01:11.919Z,7.20
2018-04-15T20:03:39.423Z,7.57
2018-04-15T20:06:07.731Z,8.00
2018-04-15T20:08:35.289Z,8.50
2018-04-15T20:11:02.836Z,7.97
2018-04-15T20:13:31.118Z,7.60
2018-04-15T20:15:58.646Z,8.23
2018-04-15T20:18:26.173Z,8.47
2018-04-15T20:20:53.700Z,7.73
2018-04-15T20:23:21.206Z,8.57
2018-04-15T20:25:48.731Z,8.80
2018-04-15T20:28:16.236Z,8.77
2018-04-15T20:30:43.779Z,10.00
2018-04-15T20:33:11.296Z,8.90
2018-04-15T20:35:38.856Z,9.83
2018-04-15T20:38:06.382Z,10.50
2018-04-15T20:40:34.696Z,10.13
2018-04-15T20:43:02.215Z,10.60
2018-04-15T20:45:29.748Z,10.83
2018-04-15T20:47:57.257Z,11.13
2018-04-15T20:50:25.556Z,11.10
2018-04-15T20:52:53.091Z,10.97
2018-04-15T20:55:20.644Z,12.03
2018-04-15T20:57:48.171Z,11.97
2018-04-15T21:00:15.712Z,12.53
2018-04-15T21:02:43.244Z,12.67
2018-04-15T21:05:10.794Z,14.23
2018-04-15T21:07:38.315Z,12.43
2018-04-15T21:10:05.861Z,12.33
2018-04-15T21:12:33.395Z,13.13
2018-04-15T21:15:00.936Z,11.93
2018-04-15T21:17:28.446Z,13.23
2018-04-15T21:19:56.047Z,13.33
2018-04-15T21:22:23.571Z,13.50
2018-04-15T21:24:51.111Z,14.33
2018-04-15T21:27:18.643Z,13.10
2018-04-15T21:29:46.959Z,13.90
2018-04-15T21:32:14.470Z,13.63
2018-04-15T21:34:42.014Z,14.63
2018-04-15T21:37:09.533Z,12.53
2018-04-15T21:39:37.055Z,14.10
2018-04-15T21:42:05.418Z,13.53
2018-04-15T21:44:32.935Z,13.47
2018-04-15T21:47:00.466Z,13.30
2018-04-15T21:49:27.987Z,14.67
2018-04-15T21:51:55.718Z,13.70
2018-04-15T21:54:23.261Z,13.03
2018-04-15T21:56:50.795Z,13.37
2018-04-15T21:59:19.097Z,14.53
2018-04-15T22:01:46.639Z,14.77
2018-04-15T22:04:14.938Z,13.30
2018-04-15T22:06:42.490Z,14.90
2018-04-15T22:09:10.007Z,13.30
2018-04-15T22:11:49.390Z,13.57
2018-04-15T22:14:16.911Z,13.70
2018-04-15T22:16:44.447Z,13.87
2018-04-15T22:19:11.963Z,13.13
2018-04-15T22:21:39.976Z,14.23
2018-04-15T22:24:07.499Z,14.00
2018-04-15T22:26:35.047Z,14.67
2018-04-15T22:29:03.322Z,14.90
2018-04-15T22:31:30.913Z,15.20
2018-04-15T22:33:58.447Z,15.20
2018-04-15T22:36:26.751Z,14.17
2018-04-15T22:38:54.337Z,16.87
2018-04-15T22:41:21.855Z,15.53
2018-04-15T22:43:49.376Z,15.67
2018-04-15T22:46:16.915Z,17.13
2018-04-15T22:48:45.199Z,17.73
2018-04-15T22:51:12.756Z,15.53
2018-04-15T22:53:40.275Z,18.03
2018-04-15T22:56:09.686Z,16.20
2018-04-15T22:58:42.958Z,17.73
2018-04-15T23:01:10.534Z,18.10
2018-04-15T23:03:38.091Z,17.53
2018-04-15T23:06:05.695Z,18.53
2018-04-15T23:08:33.224Z,17.77
2018-04-15T23:11:00.811Z,18.53
2018-04-15T23:13:28.322Z,18.63
2018-04-15T23:15:55.875Z,19.20
2018-04-15T23:18:23.400Z,20.47
2018-04-15T23:20:50.939Z,19.77
2018-04-15T23:23:18.457Z,20.20
2018-04-15T23:25:45.997Z,20.17
2018-04-15T23:28:13.516Z,21.73
2018-04-15T23:30:41.218Z,20.90
2018-04-15T23:33:08.759Z,21.97
2018-04-15T23:35:36.270Z,22.07
2018-04-15T23:38:04.571Z,21.57
2018-04-15T23:40:32.098Z,21.50
2018-04-15T23:43:00.403Z,21.27
2018-04-15T23:45:27.923Z,22.83
2018-04-15T23:47:55.480Z,22.97
2018-04-15T23:50:22.994Z,22.73
2018-04-15T23:52:50.554Z,20.50
2018-04-15T23:55:18.071Z,24.10
2018-04-15T23:57:45.608Z,23.20
